Time;durP1;ratioP1;P1;durP2;ratioP2;P2;SDS_P1;SDS_P2;PMS_P1;PMS_P2;Temp;Humidity;BMP_temperature;BMP_pressure;BME280_temperature;BME280_humidity;BME280_pressure;Samples;Min_cycle;Max_cycle;Signal;HPM_P1;HPM_P2
2023/12/26 00:00:46;;;;;;;10.50;2.50;;;9.40;99.90;;;;;;5145482;28;20016;-46
2023/12/26 00:03:11;;;;;;;15.07;2.38;;;9.50;99.90;;;;;;5146100;28;20027;-46
2023/12/26 00:05:39;;;;;;;8.13;1.63;;;9.40;99.90;;;;;;5146762;28;20110;-47
2023/12/26 00:08:06;;;;;;;13.57;2.90;;;9.40;99.90;;;;;;5146330;28;20118;-47
2023/12/26 00:10:32;;;;;;;12.77;2.03;;;9.40;99.90;;;;;;5146654;28;20272;-48
2023/12/26 00:13:00;;;;;;;16.08;2.30;;;9.50;99.90;;;;;;5146669;28;20046;-46
2023/12/26 00:15:26;;;;;;;9.10;2.03;;;9.50;99.90;;;;;;5146487;28;20291;-47
2023/12/26 00:17:51;;;;;;;11.30;2.00;;;9.50;99.90;;;;;;5145211;28;20026;-48
2023/12/26 00:20:17;;;;;;;12.38;2.30;;;9.50;99.90;;;;;;5146582;28;20031;-47
2023/12/26 00:22:43;;;;;;;9.63;2.13;;;9.50;99.90;;;;;;5146528;28;20041;-47
2023/12/26 00:25:09;;;;;;;13.13;2.42;;;9.50;99.90;;;;;;5146147;28;20038;-47
2023/12/26 00:27:37;;;;;;;12.23;2.08;;;9.50;99.90;;;;;;5146480;28;20019;-47
2023/12/26 00:30:03;;;;;;;12.25;2.03;;;9.40;99.90;;;;;;5146540;28;20098;-47
2023/12/26 00:32:29;;;;;;;11.35;2.30;;;9.40;99.90;;;;;;5146469;28;20261;-46
2023/12/26 00:34:55;;;;;;;9.18;1.92;;;9.40;99.90;;;;;;5146219;28;20038;-47
2023/12/26 00:37:21;;;;;;;11.23;2.17;;;9.40;99.90;;;;;;5145223;28;20019;-46
2023/12/26 00:39:47;;;;;;;7.45;1.45;;;9.40;99.90;;;;;;5146159;28;20027;-49
2023/12/26 00:42:12;;;;;;;8.95;1.80;;;9.40;99.90;;;;;;5146843;27;20133;-49
2023/12/26 00:44:38;;;;;;;10.60;1.85;;;9.40;99.90;;;;;;5149103;27;20042;-46
2023/12/26 00:47:04;;;;;;;10.38;2.10;;;9.40;99.90;;;;;;5149734;27;20075;-46
2023/12/26 00:49:29;;;;;;;18.10;2.88;;;9.40;99.90;;;;;;5149718;27;20320;-48
2023/12/26 00:51:55;;;;;;;18.60;2.85;;;9.40;99.90;;;;;;5149949;27;20088;-47
2023/12/26 00:54:21;;;;;;;6.15;1.92;;;9.40;99.90;;;;;;5149963;27;20102;-47
2023/12/26 00:56:46;;;;;;;21.38;2.00;;;9.40;99.90;;;;;;5148692;27;20282;-47
2023/12/26 00:59:12;;;;;;;18.40;1.77;;;9.40;99.90;;;;;;5149633;27;20023;-48
2023/12/26 01:01:38;;;;;;;12.43;2.00;;;9.40;99.90;;;;;;5149279;27;20031;-47
2023/12/26 01:04:03;;;;;;;15.00;2.25;;;9.40;99.90;;;;;;5149746;27;20023;-46
2023/12/26 01:06:29;;;;;;;13.48;2.63;;;9.40;99.90;;;;;;5149676;27;20023;-46
2023/12/26 01:08:55;;;;;;;10.75;1.60;;;9.30;99.90;;;;;;5149375;27;20244;-49
2023/12/26 01:11:20;;;;;;;10.25;1.85;;;9.30;99.90;;;;;;5149390;27;20035;-48
2023/12/26 01:13:46;;;;;;;10.90;1.60;;;9.30;99.90;;;;;;5149464;27;20043;-46
2023/12/26 01:16:12;;;;;;;13.88;2.53;;;9.30;99.90;;;;;;5149618;27;20062;-47
2023/12/26 01:18:37;;;;;;;9.75;1.52;;;9.30;99.90;;;;;;5148402;27;20064;-47
2023/12/26 01:21:05;;;;;;;14.15;1.90;;;9.20;99.90;;;;;;5149249;27;20050;-47
2023/12/26 01:23:30;;;;;;;10.95;1.55;;;9.10;99.90;;;;;;5149510;27;20037;-47
2023/12/26 01:25:56;;;;;;;14.55;1.90;;;9.00;99.90;;;;;;5149229;27;20050;-47
2023/12/26 01:28:22;;;;;;;8.95;1.63;;;8.90;99.90;;;;;;5149366;27;20027;-49
2023/12/26 01:30:47;;;;;;;11.82;2.15;;;8.90;99.90;;;;;;5148880;27;20031;-50
2023/12/26 01:33:14;;;;;;;10.40;1.85;;;8.90;99.90;;;;;;5149299;27;20027;-49
2023/12/26 01:35:40;;;;;;;12.00;2.20;;;8.80;99.90;;;;;;5149015;27;20182;-49
2023/12/26 01:38:05;;;;;;;11.80;1.83;;;8.80;99.90;;;;;;5148610;27;20030;-49
2023/12/26 01:40:31;;;;;;;6.50;1.48;;;8.80;99.90;;;;;;5149084;27;20019;-50
2023/12/26 01:42:57;;;;;;;14.30;1.83;;;8.70;99.90;;;;;;5148967;27;20030;-49
2023/12/26 01:45:23;;;;;;;9.80;2.38;;;8.70;99.90;;;;;;5148651;27;20035;-48
2023/12/26 01:47:50;;;;;;;7.35;2.15;;;8.70;99.90;;;;;;5148823;27;20277;-49
2023/12/26 01:50:16;;;;;;;10.82;1.80;;;8.70;99.90;;;;;;5147862;27;20068;-49
2023/12/26 01:52:41;;;;;;;13.07;2.03;;;8.70;99.90;;;;;;5147409;27;20047;-49
2023/12/26 01:55:07;;;;;;;8.77;1.80;;;8.70;99.90;;;;;;5146850;27;20181;-49
2023/12/26 01:57:35;;;;;;;10.77;2.13;;;8.70;99.90;;;;;;5147767;27;20172;-49
2023/12/26 02:00:01;;;;;;;10.52;1.83;;;8.70;99.90;;;;;;5147656;27;20047;-49
2023/12/26 02:02:28;;;;;;;11.25;2.00;;;8.80;99.90;;;;;;5148583;27;20023;-49
2023/12/26 02:04:53;;;;;;;10.55;2.38;;;8.80;99.90;;;;;;5148327;27;20015;-50
2023/12/26 02:07:19;;;;;;;11.20;2.05;;;8.80;99.90;;;;;;5148691;27;20050;-50
2023/12/26 02:09:45;;;;;;;8.07;1.55;;;8.80;99.90;;;;;;5147928;27;20062;-47
2023/12/26 02:12:10;;;;;;;17.67;2.42;;;8.90;99.90;;;;;;5148525;27;20072;-50
2023/12/26 02:14:36;;;;;;;12.90;1.92;;;8.90;99.90;;;;;;5130086;27;20293;-49
2023/12/26 02:17:03;;;;;;;10.93;1.55;;;9.00;99.90;;;;;;5148067;27;20083;-49
2023/12/26 02:19:28;;;;;;;9.73;2.22;;;9.10;99.90;;;;;;5148247;27;20040;-46
2023/12/26 02:21:54;;;;;;;9.77;1.70;;;9.10;99.90;;;;;;5148172;27;20027;-47
2023/12/26 02:24:20;;;;;;;10.18;2.15;;;9.10;99.90;;;;;;5147685;27;20083;-49
2023/12/26 02:26:45;;;;;;;8.05;1.80;;;9.20;99.90;;;;;;5129963;27;20035;-47
2023/12/26 02:29:11;;;;;;;12.43;2.28;;;9.30;99.90;;;;;;5147186;27;20050;-46
2023/12/26 02:31:37;;;;;;;11.45;2.08;;;9.30;99.90;;;;;;5147089;27;20321;-47
2023/12/26 02:34:02;;;;;;;7.90;1.80;;;9.30;99.90;;;;;;5147041;27;20027;-49
2023/12/26 02:36:28;;;;;;;8.30;2.17;;;9.30;99.90;;;;;;5147852;27;20038;-50
2023/12/26 02:38:54;;;;;;;12.15;1.30;;;9.30;99.90;;;;;;5146655;27;20026;-50
2023/12/26 02:41:19;;;;;;;12.13;2.03;;;9.30;99.90;;;;;;5129657;27;20130;-49
2023/12/26 02:43:45;;;;;;;15.27;3.05;;;9.40;99.90;;;;;;5146571;27;20051;-47
2023/12/26 02:46:12;;;;;;;10.35;1.98;;;9.40;99.90;;;;;;5147737;27;20027;-49
2023/12/26 02:48:38;;;;;;;13.73;1.85;;;9.30;99.90;;;;;;5147759;27;20018;-49
2023/12/26 02:51:04;;;;;;;15.85;2.40;;;9.30;99.90;;;;;;5147367;27;20086;-49
2023/12/26 02:53:29;;;;;;;7.57;1.80;;;9.40;99.90;;;;;;5146674;27;20030;-50
2023/12/26 02:55:56;;;;;;;10.70;3.78;;;9.40;99.90;;;;;;5147111;27;20026;-47
2023/12/26 02:58:21;;;;;;;16.88;1.77;;;9.40;99.90;;;;;;5146470;27;20289;-49
2023/12/26 03:00:47;;;;;;;12.05;2.05;;;9.40;99.90;;;;;;5147531;27;20030;-50
2023/12/26 03:03:13;;;;;;;10.73;2.17;;;9.40;99.90;;;;;;5147361;27;20177;-50
2023/12/26 03:05:39;;;;;;;9.30;2.42;;;9.30;99.90;;;;;;5146996;27;20046;-50
2023/12/26 03:08:05;;;;;;;14.77;1.95;;;9.40;99.90;;;;;;5147055;27;20114;-50
2023/12/26 03:10:30;;;;;;;8.02;1.60;;;9.30;99.90;;;;;;5146316;27;20019;-49
2023/12/26 03:12:56;;;;;;;8.05;1.77;;;9.30;99.90;;;;;;5146576;27;20031;-50
2023/12/26 03:15:22;;;;;;;7.85;1.45;;;9.30;99.90;;;;;;5147030;27;20027;-50
2023/12/26 03:17:48;;;;;;;7.63;1.85;;;9.30;99.90;;;;;;5147134;27;20031;-50
2023/12/26 03:20:13;;;;;;;9.63;1.67;;;9.30;99.90;;;;;;5146091;27;20031;-47
2023/12/26 03:22:40;;;;;;;9.52;1.90;;;9.30;99.90;;;;;;5147148;27;20143;-48
2023/12/26 03:25:06;;;;;;;9.57;1.77;;;9.30;99.90;;;;;;5146828;27;20173;-47
2023/12/26 03:27:32;;;;;;;16.23;2.28;;;9.20;99.90;;;;;;5145742;27;20031;-49
2023/12/26 03:29:58;;;;;;;7.90;1.40;;;9.30;99.90;;;;;;5146998;27;20058;-48
2023/12/26 03:32:23;;;;;;;11.73;1.80;;;9.20;99.90;;;;;;5147073;27;20033;-47
2023/12/26 03:34:49;;;;;;;8.75;1.73;;;9.20;99.90;;;;;;5145715;27;20023;-46
2023/12/26 03:37:15;;;;;;;8.25;1.48;;;9.20;99.90;;;;;;5146904;27;20091;-50
2023/12/26 03:39:41;;;;;;;13.10;2.00;;;9.20;99.90;;;;;;5146911;27;20027;-49
2023/12/26 03:42:07;;;;;;;11.70;1.60;;;9.20;99.90;;;;;;5146972;27;20050;-50
2023/12/26 03:44:33;;;;;;;10.02;1.65;;;9.20;99.90;;;;;;5146865;27;20034;-49
2023/12/26 03:46:58;;;;;;;10.48;1.98;;;9.20;99.90;;;;;;5146498;28;20230;-48
2023/12/26 03:49:24;;;;;;;12.43;2.55;;;9.20;99.90;;;;;;5145648;28;20189;-49
2023/12/26 03:51:50;;;;;;;11.85;1.70;;;9.20;99.90;;;;;;5146663;28;20075;-50
2023/12/26 03:54:15;;;;;;;12.95;2.17;;;9.20;99.90;;;;;;5145925;28;20071;-50
2023/12/26 03:56:41;;;;;;;12.63;1.92;;;9.20;99.90;;;;;;5146737;28;20127;-50
2023/12/26 03:59:07;;;;;;;13.27;2.30;;;9.20;99.90;;;;;;5146506;28;20015;-50
2023/12/26 04:01:33;;;;;;;13.13;1.90;;;9.10;99.90;;;;;;5146565;28;20027;-50
2023/12/26 04:03:59;;;;;;;7.20;2.03;;;9.10;99.90;;;;;;5146651;27;20076;-50
2023/12/26 04:06:24;;;;;;;14.85;2.03;;;9.10;99.90;;;;;;5146597;28;20023;-49
2023/12/26 04:08:50;;;;;;;8.00;1.40;;;9.10;99.90;;;;;;5145335;28;20204;-49
2023/12/26 04:11:16;;;;;;;7.53;1.38;;;9.10;99.90;;;;;;5146376;28;20054;-49
2023/12/26 04:13:42;;;;;;;6.10;1.02;;;9.10;99.90;;;;;;5146455;28;20064;-50
2023/12/26 04:16:07;;;;;;;8.38;1.63;;;9.10;99.90;;;;;;5146191;27;20054;-50
2023/12/26 04:18:33;;;;;;;9.57;1.58;;;9.10;99.90;;;;;;5150293;27;20046;-50
2023/12/26 04:20:59;;;;;;;7.63;1.20;;;9.00;99.90;;;;;;5150544;27;20150;-47
2023/12/26 04:23:25;;;;;;;5.53;1.25;;;9.00;99.90;;;;;;5149425;27;20023;-48
2023/12/26 04:25:50;;;;;;;9.60;1.52;;;9.00;99.90;;;;;;5150361;27;20035;-48
2023/12/26 04:28:16;;;;;;;8.80;2.30;;;9.00;99.90;;;;;;5150508;27;20018;-50
2023/12/26 04:30:42;;;;;;;7.65;1.58;;;9.10;99.90;;;;;;5149995;27;20078;-49
2023/12/26 04:33:09;;;;;;;7.03;1.15;;;9.00;99.90;;;;;;5150480;27;20047;-50
2023/12/26 04:35:35;;;;;;;6.75;1.30;;;9.00;99.90;;;;;;5150142;27;20023;-50
2023/12/26 04:38:01;;;;;;;9.30;1.40;;;9.00;99.90;;;;;;5149345;27;20076;-50
2023/12/26 04:40:27;;;;;;;6.95;1.58;;;9.00;99.90;;;;;;5149132;27;20153;-50
2023/12/26 04:42:52;;;;;;;8.68;2.17;;;9.00;99.90;;;;;;5150154;27;20047;-47
2023/12/26 04:45:18;;;;;;;9.80;1.73;;;9.00;99.90;;;;;;5149910;27;20034;-47
2023/12/26 04:47:44;;;;;;;6.80;1.10;;;9.00;99.90;;;;;;5149187;27;20084;-47
2023/12/26 04:50:10;;;;;;;7.35;1.20;;;9.00;99.90;;;;;;5150183;27;20038;-47
2023/12/26 04:52:35;;;;;;;5.68;1.92;;;9.00;99.90;;;;;;5150096;27;20042;-47
2023/12/26 04:55:02;;;;;;;8.55;1.48;;;8.90;99.90;;;;;;5149890;27;20031;-49
2023/12/26 04:57:27;;;;;;;7.18;1.25;;;8.90;99.90;;;;;;5149741;27;20063;-50
2023/12/26 04:59:53;;;;;;;3.92;1.30;;;8.90;99.90;;;;;;5149864;27;20260;-49
2023/12/26 05:02:19;;;;;;;3.58;1.20;;;8.90;99.90;;;;;;5149375;27;20031;-49
2023/12/26 05:04:44;;;;;;;9.55;1.35;;;8.90;99.90;;;;;;5149350;27;20027;-50
2023/12/26 05:07:10;;;;;;;3.88;0.95;;;8.80;99.90;;;;;;5148487;27;20023;-50
2023/12/26 05:09:36;;;;;;;7.05;1.40;;;8.80;99.90;;;;;;5149394;27;20039;-48
2023/12/26 05:12:02;;;;;;;5.65;1.27;;;8.80;99.90;;;;;;5149676;27;20027;-47
2023/12/26 05:14:28;;;;;;;4.95;1.00;;;8.80;99.90;;;;;;5149496;27;20019;-49
2023/12/26 05:16:54;;;;;;;5.78;1.20;;;8.80;99.90;;;;;;5149253;27;20042;-49
2023/12/26 05:19:20;;;;;;;7.70;1.20;;;8.80;99.90;;;;;;5131271;27;20023;-49
2023/12/26 05:21:45;;;;;;;3.38;1.23;;;8.80;99.90;;;;;;5149497;27;20226;-50
2023/12/26 05:24:11;;;;;;;5.72;1.15;;;8.80;99.90;;;;;;5149373;27;20185;-46
2023/12/26 05:26:41;;;;;;;3.22;1.00;;;8.70;99.90;;;;;;5149287;27;20154;-47
2023/12/26 05:29:07;;;;;;;6.45;1.00;;;8.70;99.90;;;;;;5149325;27;20020;-48
2023/12/26 05:31:33;;;;;;;5.78;1.30;;;8.70;99.90;;;;;;5149090;27;20031;-49
2023/12/26 05:34:00;;;;;;;10.15;1.83;;;8.70;99.90;;;;;;5148148;27;20019;-47
2023/12/26 05:36:26;;;;;;;3.78;1.10;;;8.70;99.90;;;;;;5147919;27;20237;-48
2023/12/26 05:38:52;;;;;;;6.75;1.00;;;8.70;99.90;;;;;;5149033;27;20084;-50
2023/12/26 05:41:18;;;;;;;3.85;0.88;;;8.70;99.90;;;;;;5149168;27;20023;-50
2023/12/26 05:43:44;;;;;;;5.80;1.70;;;8.70;99.90;;;;;;5149055;27;20035;-50
2023/12/26 05:46:10;;;;;;;2.20;1.25;;;8.70;99.90;;;;;;5148891;27;20043;-50
2023/12/26 05:48:36;;;;;;;8.75;1.23;;;8.70;99.90;;;;;;5148470;27;20174;-46
2023/12/26 05:51:02;;;;;;;4.53;1.15;;;8.60;99.90;;;;;;5148687;27;20027;-46
2023/12/26 05:53:30;;;;;;;5.47;0.90;;;8.60;99.90;;;;;;5148045;27;20080;-46
2023/12/26 05:55:56;;;;;;;5.60;0.95;;;8.60;99.90;;;;;;5148816;27;20026;-46
2023/12/26 05:58:23;;;;;;;9.35;1.42;;;8.60;99.90;;;;;;5147788;27;20035;-48
2023/12/26 06:00:49;;;;;;;7.03;1.42;;;8.60;99.90;;;;;;5148359;27;20055;-46
2023/12/26 06:03:15;;;;;;;8.63;1.35;;;8.60;99.90;;;;;;5148659;27;20206;-48
2023/12/26 06:05:41;;;;;;;3.92;1.02;;;8.60;99.90;;;;;;5148085;27;20051;-47
2023/12/26 06:08:07;;;;;;;4.45;1.20;;;8.60;99.90;;;;;;5148364;27;20096;-49
2023/12/26 06:10:33;;;;;;;7.70;1.38;;;8.50;99.90;;;;;;5148628;27;20035;-47
2023/12/26 06:12:58;;;;;;;3.72;0.95;;;8.40;99.90;;;;;;5147256;27;20027;-47
2023/12/26 06:15:24;;;;;;;4.63;0.98;;;8.30;99.90;;;;;;5147273;27;20027;-47
2023/12/26 06:17:50;;;;;;;5.75;1.27;;;8.20;99.90;;;;;;5148307;27;20027;-48
2023/12/26 06:20:15;;;;;;;4.55;1.30;;;8.10;99.90;;;;;;5147868;27;20083;-49
2023/12/26 06:22:41;;;;;;;7.32;1.23;;;8.00;99.90;;;;;;5148247;27;20035;-48
2023/12/26 06:25:07;;;;;;;6.30;1.67;;;7.90;99.90;;;;;;5147892;27;20176;-47
2023/12/26 06:27:33;;;;;;;3.88;1.00;;;7.80;99.90;;;;;;5147989;27;20285;-47
2023/12/26 06:29:59;;;;;;;2.95;0.88;;;7.70;99.90;;;;;;5148139;27;20043;-49
2023/12/26 06:32:25;;;;;;;6.75;1.17;;;7.60;99.90;;;;;;5148098;27;20232;-47
2023/12/26 06:34:51;;;;;;;8.88;1.10;;;7.60;99.90;;;;;;5148094;27;20031;-48
2023/12/26 06:37:16;;;;;;;5.35;1.20;;;7.50;99.90;;;;;;5147467;27;20076;-47
2023/12/26 06:39:43;;;;;;;5.75;1.50;;;7.40;99.90;;;;;;5147322;27;20098;-46
2023/12/26 06:42:13;;;;;;;7.32;1.27;;;7.30;99.90;;;;;;5147939;27;20041;-46
2023/12/26 06:44:40;;;;;;;4.95;1.10;;;7.30;99.90;;;;;;5146874;27;20038;-46
2023/12/26 06:47:06;;;;;;;5.57;1.00;;;7.20;99.90;;;;;;5147463;27;20027;-47
2023/12/26 06:49:32;;;;;;;4.53;1.25;;;7.10;99.90;;;;;;5146494;27;20084;-47
2023/12/26 06:51:59;;;;;;;4.07;1.00;;;7.10;99.90;;;;;;5147162;27;20022;-46
2023/12/26 06:54:25;;;;;;;5.88;1.85;;;7.00;99.90;;;;;;5147646;27;20054;-47
2023/12/26 06:56:50;;;;;;;2.80;0.98;;;6.90;99.90;;;;;;5147266;27;20031;-46
2023/12/26 06:59:16;;;;;;;5.45;1.23;;;6.80;99.90;;;;;;5147331;27;20031;-48
2023/12/26 07:01:48;;;;;;;7.65;1.30;;;6.80;99.90;;;;;;5147535;27;20027;-47
2023/12/26 07:04:14;;;;;;;6.50;1.30;;;6.80;99.90;;;;;;5147547;27;20058;-49
2023/12/26 07:06:39;;;;;;;3.20;1.13;;;6.70;99.90;;;;;;5129046;27;20071;-46
2023/12/26 07:09:05;;;;;;;7.45;1.20;;;6.60;99.90;;;;;;5146812;27;20062;-49
2023/12/26 07:11:31;;;;;;;4.78;0.95;;;6.50;99.90;;;;;;5147284;27;20039;-46
2023/12/26 07:13:57;;;;;;;6.20;1.55;;;6.50;99.90;;;;;;5147206;27;20288;-48
2023/12/26 07:16:22;;;;;;;6.97;1.45;;;6.40;99.90;;;;;;5147349;27;20149;-49
2023/12/26 07:18:49;;;;;;;8.68;1.60;;;6.40;99.90;;;;;;5146829;27;20047;-49
2023/12/26 07:21:17;;;;;;;6.22;3.40;;;6.30;99.90;;;;;;5146859;27;20019;-47
2023/12/26 07:23:46;;;;;;;10.35;2.78;;;6.30;99.90;;;;;;5146926;27;20027;-48
2023/12/26 07:26:12;;;;;;;5.55;1.30;;;6.30;99.90;;;;;;5147007;27;20031;-46
2023/12/26 07:28:38;;;;;;;3.58;1.17;;;6.20;99.90;;;;;;5147088;27;20316;-49
2023/12/26 07:31:03;;;;;;;6.90;1.17;;;6.20;99.90;;;;;;5147199;27;20020;-49
2023/12/26 07:33:29;;;;;;;5.72;1.35;;;6.10;99.90;;;;;;5146890;27;20098;-49
2023/12/26 07:35:57;;;;;;;6.55;1.00;;;6.10;99.90;;;;;;5146803;27;20027;-49
2023/12/26 07:38:24;;;;;;;10.90;3.17;;;6.00;99.90;;;;;;5146931;27;20057;-49
2023/12/26 07:40:50;;;;;;;4.70;1.13;;;5.90;99.90;;;;;;5146511;27;20031;-49
2023/12/26 07:43:16;;;;;;;5.45;1.38;;;5.90;99.90;;;;;;5128679;27;20023;-47
2023/12/26 07:45:42;;;;;;;4.80;1.20;;;5.80;99.90;;;;;;5146740;27;20031;-49
2023/12/26 07:48:08;;;;;;;4.20;1.23;;;5.70;99.90;;;;;;5146777;27;20227;-46
2023/12/26 07:50:34;;;;;;;4.60;1.30;;;5.70;99.90;;;;;;5146726;27;20029;-47
2023/12/26 07:52:59;;;;;;;5.35;1.40;;;5.70;99.90;;;;;;5145885;28;20027;-47
2023/12/26 07:55:25;;;;;;;6.45;1.40;;;5.80;99.90;;;;;;5146481;28;20042;-47
2023/12/26 07:57:51;;;;;;;8.50;1.45;;;5.70;99.90;;;;;;5146559;28;20082;-50
2023/12/26 08:00:17;;;;;;;4.00;1.27;;;5.70;99.90;;;;;;5145629;28;20077;-49
2023/12/26 08:02:42;;;;;;;3.20;1.17;;;5.70;99.90;;;;;;5146627;28;20330;-48
2023/12/26 08:05:09;;;;;;;7.88;1.45;;;5.70;99.90;;;;;;5146466;28;20026;-45
2023/12/26 08:07:35;;;;;;;3.92;0.98;;;5.70;99.90;;;;;;5145421;28;20031;-45
2023/12/26 08:10:01;;;;;;;5.10;1.10;;;5.70;99.90;;;;;;5146340;28;20076;-47
2023/12/26 08:12:26;;;;;;;2.80;0.95;;;5.60;99.90;;;;;;5146494;28;20050;-48
2023/12/26 08:14:52;;;;;;;5.85;1.52;;;5.60;99.90;;;;;;5146412;28;20218;-48
2023/12/26 08:17:18;;;;;;;4.53;1.27;;;5.60;99.90;;;;;;5146241;28;20038;-48
2023/12/26 08:19:43;;;;;;;4.90;1.35;;;5.60;99.90;;;;;;5145435;28;20035;-51
2023/12/26 08:22:09;;;;;;;3.88;0.90;;;5.50;99.90;;;;;;5146518;28;20281;-50
2023/12/26 08:24:35;;;;;;;4.28;1.10;;;5.50;99.90;;;;;;5146440;28;20248;-51
2023/12/26 08:27:00;;;;;;;6.93;1.15;;;5.40;99.90;;;;;;5146341;28;20051;-51
2023/12/26 08:29:26;;;;;;;6.20;1.17;;;5.40;99.90;;;;;;5146286;28;20027;-50
2023/12/26 08:31:53;;;;;;;6.85;1.20;;;5.40;99.90;;;;;;5146460;28;20023;-51
2023/12/26 08:34:19;;;;;;;4.25;1.10;;;5.40;99.90;;;;;;5146367;28;20197;-50
2023/12/26 08:36:45;;;;;;;3.72;1.25;;;5.40;99.90;;;;;;5146377;28;20023;-48
2023/12/26 08:39:10;;;;;;;3.53;1.00;;;5.30;99.90;;;;;;5144965;28;20034;-47
2023/12/26 08:41:37;;;;;;;5.43;1.10;;;5.40;99.90;;;;;;5146030;28;20052;-48
2023/12/26 08:44:03;;;;;;;7.38;1.33;;;5.30;99.90;;;;;;5146269;28;20037;-49
2023/12/26 08:46:28;;;;;;;9.25;1.30;;;5.30;99.90;;;;;;5145519;28;20043;-49
2023/12/26 08:48:54;;;;;;;4.47;1.20;;;5.30;99.90;;;;;;5145812;28;20079;-49
2023/12/26 08:51:20;;;;;;;4.38;1.20;;;5.40;99.90;;;;;;5144967;28;20019;-49
2023/12/26 08:53:48;;;;;;;3.85;1.10;;;5.40;99.90;;;;;;5145973;28;20027;-47
2023/12/26 08:56:14;;;;;;;6.47;1.98;;;5.50;99.90;;;;;;5145980;28;20173;-49
2023/12/26 08:58:40;;;;;;;7.78;1.52;;;5.60;99.90;;;;;;5146023;28;20027;-45
2023/12/26 09:01:09;;;;;;;3.47;1.20;;;5.80;99.90;;;;;;5145472;28;20051;-46
2023/12/26 09:03:35;;;;;;;5.82;1.08;;;5.90;99.90;;;;;;5146633;27;20034;-47
2023/12/26 09:06:01;;;;;;;8.50;1.50;;;6.00;99.90;;;;;;5149665;27;20019;-47
2023/12/26 09:08:26;;;;;;;5.78;1.60;;;6.00;99.90;;;;;;5149354;27;20047;-47
2023/12/26 09:10:52;;;;;;;6.75;1.42;;;6.10;99.90;;;;;;5149458;27;20030;-46
2023/12/26 09:13:21;;;;;;;5.03;2.55;;;6.10;99.90;;;;;;5149626;27;20019;-47
2023/12/26 09:15:50;;;;;;;9.95;2.88;;;6.00;99.90;;;;;;5149486;27;20027;-46
2023/12/26 09:18:16;;;;;;;6.88;1.98;;;6.00;99.90;;;;;;5148722;27;20053;-46
2023/12/26 09:20:42;;;;;;;5.93;1.45;;;5.90;99.90;;;;;;5149859;27;20035;-46
2023/12/26 09:23:07;;;;;;;4.10;1.50;;;6.00;99.90;;;;;;5149497;27;20092;-46
2023/12/26 09:25:33;;;;;;;8.05;1.65;;;6.00;99.90;;;;;;5148878;27;20023;-46
2023/12/26 09:27:59;;;;;;;8.27;2.00;;;6.10;99.90;;;;;;5150400;27;20334;-46
2023/12/26 09:30:24;;;;;;;2.97;1.52;;;6.20;99.90;;;;;;5149821;27;20307;-47
2023/12/26 09:32:50;;;;;;;6.93;2.15;;;6.30;99.90;;;;;;5149191;27;20143;-46
2023/12/26 09:35:16;;;;;;;8.13;2.42;;;6.30;99.90;;;;;;5149171;27;20023;-46
2023/12/26 09:37:41;;;;;;;5.57;2.60;;;6.30;99.90;;;;;;5149174;27;20031;-49
2023/12/26 09:40:08;;;;;;;9.32;2.45;;;6.40;99.90;;;;;;5149448;27;20272;-48
2023/12/26 09:42:34;;;;;;;5.55;1.95;;;6.40;99.90;;;;;;5149115;27;20035;-48
2023/12/26 09:45:00;;;;;;;6.82;3.10;;;6.60;99.90;;;;;;5148209;27;20047;-50
2023/12/26 09:47:26;;;;;;;6.45;2.38;;;6.80;99.90;;;;;;5148855;27;20303;-48
2023/12/26 09:49:54;;;;;;;7.07;1.80;;;6.90;99.90;;;;;;5148888;27;20023;-48
2023/12/26 09:52:20;;;;;;;4.97;1.92;;;6.90;99.90;;;;;;5148855;27;20169;-49
2023/12/26 09:54:46;;;;;;;7.97;2.70;;;6.80;99.90;;;;;;5130914;27;20209;-48
2023/12/26 09:57:12;;;;;;;8.50;4.30;;;6.70;99.90;;;;;;5131107;27;20031;-49
2023/12/26 09:59:37;;;;;;;7.10;2.10;;;6.80;99.90;;;;;;5148437;27;20015;-48
2023/12/26 10:02:04;;;;;;;2.90;1.30;;;6.80;99.90;;;;;;5147373;27;20087;-49
2023/12/26 10:04:30;;;;;;;6.47;1.80;;;6.80;99.90;;;;;;5148114;27;20026;-49
2023/12/26 10:06:56;;;;;;;10.73;2.42;;;6.70;99.90;;;;;;5148434;27;20285;-49
2023/12/26 10:09:21;;;;;;;6.72;1.70;;;6.60;99.90;;;;;;5147964;27;20054;-48
2023/12/26 10:11:47;;;;;;;7.53;1.88;;;6.60;99.90;;;;;;5148392;27;20027;-48
2023/12/26 10:14:23;;;;;;;7.47;1.98;;;6.50;99.90;;;;;;5146759;27;20031;-48
2023/12/26 10:16:49;;;;;;;3.08;1.40;;;6.40;99.90;;;;;;5131580;27;20038;-49
2023/12/26 10:19:15;;;;;;;8.00;1.70;;;6.40;99.90;;;;;;5147883;27;20035;-47
2023/12/26 10:21:40;;;;;;;7.25;2.60;;;6.40;99.90;;;;;;5147798;27;20164;-48
2023/12/26 10:24:10;;;;;;;8.02;2.55;;;6.40;99.90;;;;;;5148095;27;20062;-49
2023/12/26 10:26:36;;;;;;;5.65;1.80;;;6.50;99.90;;;;;;5129836;27;20035;-46
2023/12/26 10:29:02;;;;;;;8.80;1.58;;;6.60;99.90;;;;;;5147610;27;20035;-48
2023/12/26 10:31:28;;;;;;;12.68;4.03;;;6.70;99.90;;;;;;5147783;27;20011;-50
2023/12/26 10:33:53;;;;;;;6.72;1.70;;;6.70;99.90;;;;;;5147307;27;20298;-48
2023/12/26 10:36:19;;;;;;;4.18;1.40;;;6.70;99.90;;;;;;5147384;27;20091;-50
2023/12/26 10:38:45;;;;;;;15.68;2.15;;;6.80;99.90;;;;;;5147899;27;20237;-48
2023/12/26 10:41:18;;;;;;;9.38;2.30;;;6.90;99.90;;;;;;5146750;27;20027;-49
2023/12/26 10:43:44;;;;;;;9.80;4.20;;;7.10;99.90;;;;;;5130199;27;20292;-50
2023/12/26 10:46:09;;;;;;;12.00;4.50;;;7.30;99.90;;;;;;5129497;27;20043;-50
2023/12/26 10:48:35;;;;;;;8.95;2.80;;;7.50;99.90;;;;;;5147625;27;20027;-46
2023/12/26 10:51:01;;;;;;;6.15;3.03;;;7.60;99.90;;;;;;5146377;27;20034;-46
2023/12/26 10:53:43;;;;;;;12.00;2.78;;;7.70;99.90;;;;;;5147645;27;20015;-46
2023/12/26 10:56:10;;;;;;;9.23;2.55;;;7.80;99.90;;;;;;5146615;27;20031;-46
2023/12/26 10:58:36;;;;;;;10.70;3.42;;;7.90;99.90;;;;;;5146341;27;20316;-47
2023/12/26 13:53:21;;;;;;;7.03;2.85;;;9.20;99.90;;;;;;5148669;27;20136;-50
2023/12/26 13:55:47;;;;;;;7.05;2.35;;;9.10;99.90;;;;;;5147675;27;20031;-48
2023/12/26 13:58:13;;;;;;;7.28;2.28;;;9.10;99.90;;;;;;5148749;27;20027;-51
2023/12/26 14:01:16;;;;;;;9.98;2.40;;;9.00;99.90;;;;;;5130057;27;20122;-51
2023/12/26 14:04:19;;;;;;;6.13;2.00;;;8.90;99.90;;;;;;5148207;27;20154;-50
2023/12/26 14:06:46;;;;;;;7.18;2.15;;;8.90;99.90;;;;;;5148344;27;20174;-50
2023/12/26 14:09:13;;;;;;;4.78;2.13;;;8.90;99.90;;;;;;5148228;27;20360;-50
2023/12/26 14:11:38;;;;;;;7.18;2.13;;;8.90;99.90;;;;;;5148193;27;20039;-50
2023/12/26 14:14:41;;;;;;;5.55;1.80;;;8.80;99.90;;;;;;5148323;27;20027;-50
2023/12/26 14:17:45;;;;;;;7.78;1.48;;;8.80;99.90;;;;;;5147811;27;20034;-51
2023/12/26 14:20:48;;;;;;;5.82;1.63;;;8.70;99.90;;;;;;5148189;27;20149;-51
2023/12/26 14:23:51;;;;;;;3.30;1.50;;;8.70;99.90;;;;;;5147668;27;20031;-50
2023/12/26 14:26:16;;;;;;;3.92;2.05;;;8.70;99.90;;;;;;5148062;27;20033;-50
2023/12/26 14:28:42;;;;;;;9.73;2.10;;;8.60;99.90;;;;;;5148047;27;20054;-50
2023/12/26 14:31:08;;;;;;;5.65;2.30;;;8.60;99.90;;;;;;5147393;27;20071;-50
2023/12/26 14:33:33;;;;;;;4.32;1.40;;;8.60;99.90;;;;;;5147845;27;20023;-50
2023/12/26 14:35:59;;;;;;;11.35;1.67;;;8.60;99.90;;;;;;5147869;27;20091;-50
2023/12/26 14:38:25;;;;;;;6.00;1.88;;;8.50;99.90;;;;;;5147646;27;20034;-50
2023/12/26 14:40:50;;;;;;;7.15;2.00;;;8.50;99.90;;;;;;5147520;27;20027;-47
2023/12/26 14:43:16;;;;;;;9.38;4.10;;;8.50;99.90;;;;;;5146575;27;20098;-47
2023/12/26 14:45:42;;;;;;;11.32;4.15;;;8.40;99.90;;;;;;5147623;27;20073;-47
2023/12/26 14:48:45;;;;;;;8.75;3.42;;;8.40;99.90;;;;;;5147288;27;20015;-47
2023/12/26 14:51:48;;;;;;;12.02;3.65;;;8.40;99.90;;;;;;5147318;27;20079;-47
2023/12/26 14:54:15;;;;;;;7.57;3.10;;;8.40;99.90;;;;;;5147489;27;20362;-47
2023/12/26 14:56:41;;;;;;;10.25;3.17;;;8.30;99.90;;;;;;5147433;27;20027;-47
2023/12/26 14:59:06;;;;;;;7.00;3.10;;;8.30;99.90;;;;;;5147423;27;20026;-48
2023/12/26 15:01:32;;;;;;;7.70;2.53;;;8.30;99.90;;;;;;5146908;27;20056;-47
2023/12/26 15:03:57;;;;;;;8.13;3.38;;;8.20;99.90;;;;;;5146666;27;20037;-50
2023/12/26 15:06:23;;;;;;;10.55;4.40;;;8.20;99.90;;;;;;5147015;27;20168;-48
2023/12/26 15:08:49;;;;;;;10.18;3.53;;;8.20;99.90;;;;;;5145860;27;20108;-47
2023/12/26 15:11:15;;;;;;;10.73;3.60;;;8.20;99.90;;;;;;5147108;27;20031;-49
2023/12/26 15:13:41;;;;;;;7.28;2.72;;;8.20;99.90;;;;;;5145919;27;20033;-47
2023/12/26 15:16:17;;;;;;;10.85;3.28;;;8.10;99.90;;;;;;5147192;27;20027;-47
2023/12/26 15:18:43;;;;;;;8.38;4.50;;;8.10;99.90;;;;;;5147613;27;20154;-48
2023/12/26 15:21:09;;;;;;;8.68;3.70;;;8.00;99.90;;;;;;5146682;27;20026;-47
2023/12/26 15:23:34;;;;;;;9.57;4.00;;;8.00;99.90;;;;;;5146782;27;20034;-51
2023/12/26 15:26:00;;;;;;;11.75;4.40;;;8.00;99.90;;;;;;5146971;27;20090;-46
2023/12/26 15:28:26;;;;;;;13.57;5.57;;;8.00;99.90;;;;;;5145874;27;20023;-48
2023/12/26 15:30:51;;;;;;;11.65;4.78;;;7.90;99.90;;;;;;5146327;27;20023;-49
2023/12/26 15:33:19;;;;;;;10.73;4.63;;;7.90;99.90;;;;;;5146478;27;20023;-47
2023/12/26 15:35:45;;;;;;;9.35;4.22;;;7.90;99.90;;;;;;5145594;27;20062;-50
2023/12/26 15:38:11;;;;;;;11.13;4.15;;;7.90;99.90;;;;;;5146822;27;20042;-48
2023/12/26 15:40:37;;;;;;;10.70;4.38;;;7.80;99.90;;;;;;5146872;27;20027;-49
2023/12/26 15:43:02;;;;;;;9.73;4.22;;;7.80;99.90;;;;;;5146415;27;20023;-47